Map

Track Data

SID SEASON NUMBER BASIN SUBBASIN NAME ISO_TIME NATURE LAT LON WMO_WIND WMO_PRES WMO_AGENCY TRACK_TYPE DIST2LAND LANDFALL IFLAG USA_AGENCY USA_ATCF_ID USA_LAT USA_LON USA_RECORD USA_STATUS USA_WIND USA_PRES USA_SSHS USA_R34_NE USA_R34_SE USA_R34_SW USA_R34_NW USA_R50_NE USA_R50_SE USA_R50_SW USA_R50_NW USA_R64_NE USA_R64_SE USA_R64_SW USA_R64_NW USA_POCI USA_ROCI USA_RMW USA_EYE TOKYO_LAT TOKYO_LON TOKYO_GRADE TOKYO_WIND TOKYO_PRES TOKYO_R50_DIR TOKYO_R50_LONG TOKYO_R50_SHORT TOKYO_R30_DIR TOKYO_R30_LONG TOKYO_R30_SHORT TOKYO_LAND CMA_LAT CMA_LON CMA_CAT CMA_WIND CMA_PRES HKO_LAT HKO_LON HKO_CAT HKO_WIND HKO_PRES NEWDELHI_LAT NEWDELHI_LON NEWDELHI_GRADE NEWDELHI_WIND NEWDELHI_PRES NEWDELHI_CI NEWDELHI_DP NEWDELHI_POCI REUNION_LAT REUNION_LON REUNION_TYPE REUNION_WIND REUNION_PRES REUNION_TNUM REUNION_CI REUNION_RMW REUNION_R34_NE REUNION_R34_SE REUNION_R34_SW REUNION_R34_NW REUNION_R50_NE REUNION_R50_SE REUNION_R50_SW REUNION_R50_NW REUNION_R64_NE REUNION_R64_SE REUNION_R64_SW REUNION_R64_NW BOM_LAT BOM_LON BOM_TYPE BOM_WIND BOM_PRES BOM_TNUM BOM_CI BOM_RMW BOM_R34_NE BOM_R34_SE BOM_R34_SW BOM_R34_NW BOM_R50_NE BOM_R50_SE BOM_R50_SW BOM_R50_NW BOM_R64_NE BOM_R64_SE BOM_R64_SW BOM_R64_NW BOM_ROCI BOM_POCI BOM_EYE BOM_POS_METHOD BOM_PRES_METHOD NADI_LAT NADI_LON NADI_CAT NADI_WIND NADI_PRES WELLINGTON_LAT WELLINGTON_LON WELLINGTON_WIND WELLINGTON_PRES DS824_LAT DS824_LON DS824_STAGE DS824_WIND DS824_PRES TD9636_LAT TD9636_LON TD9636_STAGE TD9636_WIND TD9636_PRES TD9635_LAT TD9635_LON TD9635_WIND TD9635_PRES TD9635_ROCI NEUMANN_LAT NEUMANN_LON NEUMANN_CLASS NEUMANN_WIND NEUMANN_PRES MLC_LAT MLC_LON MLC_CLASS MLC_WIND MLC_PRES USA_GUST BOM_GUST BOM_GUST_PER REUNION_GUST REUNION_GUST_PER USA_SEAHGT USA_SEARAD_NE USA_SEARAD_SE USA_SEARAD_SW USA_SEARAD_NW STORM_SPEED STORM_DIR
1938266N17148 1938 50 WP MM NOT_NAMED 1938-09-23 09:00:00 NR 17.2000 148.000 main 2133 2106 __________O___ -1 17.2000 148.000 7 29 260
1938266N17148 1938 50 WP MM NOT_NAMED 1938-09-23 12:00:00 NR 16.9540 146.493 main 2103 2074 __________P___ -1 16.9540 146.493 7 29 261
1938266N17148 1938 50 WP MM NOT_NAMED 1938-09-23 15:00:00 NR 16.7408 145.061 main 2084 2031 __________P___ -1 16.7408 145.061 7 26 262
1938266N17148 1938 50 WP MM NOT_NAMED 1938-09-23 18:00:00 NR 16.6070 143.774 main 2031 1927 __________P___ -1 16.6070 143.774 7 23 266
1938266N17148 1938 50 WP MM NOT_NAMED 1938-09-23 21:00:00 NR 16.6000 142.700 main 1916 1836 __________O___ -1 16.6000 142.700 7 18 274
1938266N17148 1938 50 WP MM NOT_NAMED 1938-09-24 00:00:00 NR 16.7479 141.878 main 1836 1782 __________P___ -1 16.7479 141.878 7 15 286
1938266N17148 1938 50 WP MM NOT_NAMED 1938-09-24 03:00:00 NR 16.9975 141.226 main 1772 1727 __________P___ -1 16.9975 141.226 7 13 294
1938266N17148 1938 50 WP MM NOT_NAMED 1938-09-24 06:00:00 NR 17.2737 140.637 main 1720 1667 __________P___ -1 17.2737 140.637 7 13 293
1938266N17148 1938 50 WP MM NOT_NAMED 1938-09-24 09:00:00 NR 17.5000 140.000 main 1667 1591 __________O___ -1 17.5000 140.000 7 15 281
1938266N17148 1938 50 WP MM NOT_NAMED 1938-09-24 12:00:00 NR 17.5544 139.098 main 1581 1488 __________P___ -1 17.5544 139.098 7 18 272
1938266N17148 1938 50 WP MM NOT_NAMED 1938-09-24 15:00:00 NR 17.5478 138.146 main 1478 1400 __________P___ -1 17.5478 138.146 7 18 269
1938266N17148 1938 50 WP MM NOT_NAMED 1938-09-24 18:00:00 NR 17.5170 137.220 main 1390 1313 __________P___ -1 17.5170 137.220 7 17 268
1938266N17148 1938 50 WP MM NOT_NAMED 1938-09-24 21:00:00 NR 17.5000 136.400 main 1313 1255 __________O___ -1 17.5000 136.400 7 14 268
1938266N17148 1938 50 WP MM NOT_NAMED 1938-09-25 00:00:00 NR 17.4696 135.800 main 1255 1208 __________P___ -1 17.4696 135.800 7 10 269
1938266N17148 1938 50 WP MM NOT_NAMED 1938-09-25 03:00:00 NR 17.4743 135.307 main 1208 1171 __________P___ -1 17.4743 135.307 7 9 276
1938266N17148 1938 50 WP MM NOT_NAMED 1938-09-25 06:00:00 NR 17.5670 134.861 main 1177 1143 __________P___ -1 17.5670 134.861 7 9 291
1938266N17148 1938 50 WP MM NOT_NAMED 1938-09-25 09:00:00 NR 17.8000 134.400 main 1143 1113 __________O___ -1 17.8000 134.400 7 12 305
1938266N17148 1938 50 WP MM NOT_NAMED 1938-09-25 12:00:00 NR 18.2765 133.795 main 1118 1087 __________P___ -1 18.2765 133.795 7 16 313
1938266N17148 1938 50 WP MM NOT_NAMED 1938-09-25 15:00:00 NR 18.8835 133.167 main 1092 1071 __________P___ -1 18.8835 133.167 7 17 317
1938266N17148 1938 50 WP MM NOT_NAMED 1938-09-25 18:00:00 NR 19.5236 132.555 main 1074 1035 __________P___ -1 19.5236 132.555 7 16 318
1938266N17148 1938 50 WP MM NOT_NAMED 1938-09-25 21:00:00 NR 20.1000 132.000 main 1035 1010 __________O___ -1 20.1000 132.000 7 13 319
1938266N17148 1938 50 WP MM NOT_NAMED 1938-09-26 00:00:00 NR 20.4999 131.663 main 1012 990 __________P___ -1 20.4999 131.663 7 9 321
1938266N17148 1938 50 WP MM NOT_NAMED 1938-09-26 03:00:00 NR 20.8220 131.374 main 990 959 __________P___ -1 20.8220 131.374 7 8 314
1938266N17148 1938 50 WP MM NOT_NAMED 1938-09-26 06:00:00 NR 21.0833 131.023 main 959 916 __________P___ -1 21.0833 131.023 7 9 300
1938266N17148 1938 50 WP MM NOT_NAMED 1938-09-26 09:00:00 NR 21.3000 130.500 main 916 847 __________O___ -1 21.3000 130.500 7 14 290
1938266N17148 1938 50 WP MM NOT_NAMED 1938-09-26 12:00:00 NR 21.5590 129.595 main 842 748 __________P___ -1 21.5590 129.595 7 19 284
1938266N17148 1938 50 WP MM NOT_NAMED 1938-09-26 15:00:00 NR 21.7646 128.521 main 738 640 __________P___ -1 21.7646 128.521 7 21 279
1938266N17148 1938 50 WP MM NOT_NAMED 1938-09-26 18:00:00 NR 21.8872 127.411 main 630 530 __________P___ -1 21.8872 127.411 7 20 274
1938266N17148 1938 50 WP MM NOT_NAMED 1938-09-26 21:00:00 NR 21.9000 126.400 main 530 478 __________O___ -1 21.9000 126.400 7 16 262
1938266N17148 1938 50 WP MM NOT_NAMED 1938-09-27 00:00:00 NR 21.6633 125.749 main 468 434 __________P___ -1 21.6633 125.749 7 12 243
1938266N17148 1938 50 WP MM NOT_NAMED 1938-09-27 03:00:00 NR 21.3445 125.206 main 439 392 __________P___ -1 21.3445 125.206 7 12 240
1938266N17148 1938 50 WP MM NOT_NAMED 1938-09-27 06:00:00 NR 21.0789 124.660 main 392 336 __________P___ -1 21.0789 124.660 7 12 253
1938266N17148 1938 50 WP MM NOT_NAMED 1938-09-27 09:00:00 NR 21.0000 124.000 main 336 227 __________O___ -1 21.0000 124.000 7 16 280
1938266N17148 1938 50 WP MM NOT_NAMED 1938-09-27 12:00:00 NR 21.3484 122.958 main 227 103 __________P___ -1 21.3484 122.958 7 22 293
1938266N17148 1938 50 WP MM NOT_NAMED 1938-09-27 15:00:00 NR 21.8759 121.797 main 92 0 __________P___ -1 21.8759 121.797 7 24 297
1938266N17148 1938 50 WP MM NOT_NAMED 1938-09-27 18:00:00 NR 22.4394 120.660 main 0 0 __________P___ -1 22.4394 120.660 7 22 298
1938266N17148 1938 50 WP MM NOT_NAMED 1938-09-27 21:00:00 NR 22.9000 119.700 main 46 46 __________O___ -1 22.9000 119.700 7 15 297
1938266N17148 1938 50 WP MM NOT_NAMED 1938-09-28 00:00:00 NR 23.1178 119.227 main 92 92 __________P___ -1 23.1178 119.227 7 8 294
1938266N17148 1938 50 WP MM NOT_NAMED 1938-09-28 03:00:00 NR 23.2152 118.933 main 122 120 __________P___ -1 23.2152 118.933 7 5 279
1938266N17148 1938 50 WP MM NOT_NAMED 1938-09-28 06:00:00 NR 23.2054 118.648 main 112 90 __________P___ -1 23.2054 118.648 7 7 260
1938266N17148 1938 50 WP MM NOT_NAMED 1938-09-28 09:00:00 NR 23.1000 118.200 main 90 78 __________O___ -1 23.1000 118.200 7 11 255
1938266N17148 1938 50 WP MM NOT_NAMED 1938-09-28 12:00:00 NR 22.9099 117.461 main 78 22 __________P___ -1 22.9099 117.461 7 17 254
1938266N17148 1938 50 WP MM NOT_NAMED 1938-09-28 15:00:00 NR 22.6508 116.474 main 22 22 __________P___ -1 22.6508 116.474 7 21 254
1938266N17148 1938 50 WP MM NOT_NAMED 1938-09-28 18:00:00 NR 22.3409 115.325 main 44 22 __________P___ -1 22.3409 115.325 7 23 253
1938266N17148 1938 50 WP MM NOT_NAMED 1938-09-28 21:00:00 NR 22.0000 114.100 main 39 __________O___ -1 22.0000 114.100 7 24 253

Digital Typhoon Data and Search

About IBTrACS Database

This database is a web-friendly format of International Best Track Archive for Climate Stewardship (IBTrACS), a global best track data archive curated by NOAA dating back to 1842.

Updated: 2021-10-08